createdAt,value
2022-10-23T00:00:02.153Z,1006.63
2022-10-23T00:01:02.189Z,1006.58
2022-10-23T00:02:02.298Z,1006.63
2022-10-23T00:03:02.589Z,1006.64
2022-10-23T00:04:02.706Z,1006.65
2022-10-23T00:05:02.608Z,1006.61
2022-10-23T00:06:02.111Z,1006.62
2022-10-23T00:07:03.367Z,1006.64
2022-10-23T00:08:02.851Z,1006.61
2022-10-23T00:09:03.296Z,1006.64
2022-10-23T00:10:02.777Z,1006.57
2022-10-23T00:11:03.404Z,1006.60
2022-10-23T00:12:02.078Z,1006.56
2022-10-23T00:13:02.724Z,1006.53
2022-10-23T00:14:02.123Z,1006.55
2022-10-23T00:15:02.413Z,1006.51
2022-10-23T00:16:02.282Z,1006.46
2022-10-23T00:17:02.523Z,1006.47
2022-10-23T00:18:02.702Z,1006.45
2022-10-23T00:19:02.769Z,1006.41
2022-10-23T00:20:02.291Z,1006.44
2022-10-23T00:21:02.690Z,1006.46
2022-10-23T00:22:03.045Z,1006.46
2022-10-23T00:23:02.748Z,1006.45
2022-10-23T00:24:02.662Z,1006.46
2022-10-23T00:25:02.587Z,1006.51
2022-10-23T00:26:03.221Z,1006.51
2022-10-23T00:27:03.228Z,1006.49
2022-10-23T00:28:03.105Z,1006.51
2022-10-23T00:29:02.922Z,1006.46
2022-10-23T00:30:03.004Z,1006.49
2022-10-23T00:31:02.935Z,1006.47
2022-10-23T00:32:02.910Z,1006.43
2022-10-23T00:33:03.091Z,1006.45
2022-10-23T00:34:03.131Z,1006.46
2022-10-23T00:35:02.752Z,1006.45
2022-10-23T00:36:02.579Z,1006.50
2022-10-23T00:37:02.974Z,1006.49
2022-10-23T00:38:03.504Z,1006.53
2022-10-23T00:39:03.062Z,1006.47
2022-10-23T00:40:02.884Z,1006.50
2022-10-23T00:41:03.177Z,1006.53
2022-10-23T00:42:02.356Z,1006.49
2022-10-23T00:43:02.203Z,1006.52
2022-10-23T00:44:02.593Z,1006.51
2022-10-23T00:45:02.263Z,1006.54
2022-10-23T00:46:02.597Z,1006.53
2022-10-23T00:47:02.674Z,1006.52
2022-10-23T00:48:02.543Z,1006.56
2022-10-23T00:49:02.408Z,1006.54
2022-10-23T00:50:02.431Z,1006.50
2022-10-23T00:51:02.372Z,1006.48
2022-10-23T00:52:02.733Z,1006.45
2022-10-23T00:53:02.680Z,1006.48
2022-10-23T00:54:23.059Z,1006.47
2022-10-23T00:55:02.672Z,1006.47
2022-10-23T00:56:02.440Z,1006.45
2022-10-23T00:57:02.302Z,1006.48
2022-10-23T00:58:02.599Z,1006.50
2022-10-23T00:59:02.869Z,1006.49
2022-10-23T01:00:02.438Z,1006.48
2022-10-23T01:01:02.861Z,1006.47
2022-10-23T01:02:02.635Z,1006.44
2022-10-23T01:03:02.543Z,1006.45
2022-10-23T01:04:02.565Z,1006.44
2022-10-23T01:05:02.657Z,1006.39
2022-10-23T01:06:02.461Z,1006.37
2022-10-23T01:07:02.961Z,1006.39
2022-10-23T01:08:03.440Z,1006.36
2022-10-23T01:09:03.228Z,1006.40
2022-10-23T01:10:03.019Z,1006.35
2022-10-23T01:11:03.459Z,1006.38
2022-10-23T01:12:03.239Z,1006.38
2022-10-23T01:13:03.640Z,1006.39
2022-10-23T01:15:03.302Z,1006.39
2022-10-23T01:16:03.846Z,1006.44
2022-10-23T01:17:02.461Z,1006.45
2022-10-23T01:18:02.699Z,1006.49
2022-10-23T01:19:02.343Z,1006.48
2022-10-23T01:20:02.428Z,1006.49
2022-10-23T01:21:02.617Z,1006.52
2022-10-23T01:22:03.329Z,1006.53
2022-10-23T01:23:03.189Z,1006.53
2022-10-23T01:24:03.568Z,1006.54
2022-10-23T01:25:03.444Z,1006.57
2022-10-23T01:26:03.282Z,1006.56
2022-10-23T01:27:03.153Z,1006.52
2022-10-23T01:28:03.045Z,1006.51
2022-10-23T01:29:02.844Z,1006.46
2022-10-23T01:30:03.242Z,1006.42
2022-10-23T01:31:02.860Z,1006.40
2022-10-23T01:32:03.366Z,1006.38
2022-10-23T01:33:03.853Z,1006.36
2022-10-23T01:34:03.861Z,1006.36
2022-10-23T01:35:03.572Z,1006.40
2022-10-23T01:36:03.236Z,1006.40
2022-10-23T01:37:02.487Z,1006.39
2022-10-23T01:38:02.522Z,1006.40
2022-10-23T01:40:02.644Z,1006.38
2022-10-23T01:41:02.562Z,1006.38
2022-10-23T01:42:02.955Z,1006.33
2022-10-23T01:43:03.038Z,1006.32
2022-10-23T01:44:03.232Z,1006.31
2022-10-23T01:45:03.172Z,1006.35
2022-10-23T01:46:03.413Z,1006.37
2022-10-23T01:47:03.290Z,1006.37
2022-10-23T01:48:03.222Z,1006.37
2022-10-23T01:49:03.457Z,1006.37
2022-10-23T01:50:03.269Z,1006.33
2022-10-23T01:51:03.216Z,1006.34
2022-10-23T01:52:02.611Z,1006.28
2022-10-23T01:53:02.917Z,1006.29
2022-10-23T01:54:02.528Z,1006.26
2022-10-23T01:55:02.953Z,1006.27
2022-10-23T01:56:02.979Z,1006.28
2022-10-23T01:57:02.865Z,1006.32
2022-10-23T01:58:02.750Z,1006.29
2022-10-23T01:59:02.955Z,1006.30
2022-10-23T02:00:03.072Z,1006.29
2022-10-23T02:01:02.770Z,1006.28
2022-10-23T02:02:02.438Z,1006.29
2022-10-23T02:03:02.529Z,1006.27
2022-10-23T02:04:02.367Z,1006.30
2022-10-23T02:05:02.189Z,1006.25
2022-10-23T02:06:02.623Z,1006.24
2022-10-23T02:07:02.899Z,1006.22
2022-10-23T02:08:02.952Z,1006.15
2022-10-23T02:09:03.016Z,1006.17
2022-10-23T02:10:02.911Z,1006.14
2022-10-23T02:11:02.693Z,1006.11
2022-10-23T02:12:02.331Z,1006.11
2022-10-23T02:13:01.961Z,1006.09
2022-10-23T02:14:02.419Z,1006.08
2022-10-23T02:15:02.097Z,1006.04
2022-10-23T02:16:02.336Z,1006.01
2022-10-23T02:17:02.962Z,1005.96
2022-10-23T02:18:02.530Z,1005.90
2022-10-23T02:19:02.482Z,1005.87
2022-10-23T02:20:02.742Z,1005.87
2022-10-23T02:21:02.590Z,1005.84
2022-10-23T02:22:03.305Z,1005.82
2022-10-23T02:23:03.183Z,1005.84
2022-10-23T02:24:02.734Z,1005.84
2022-10-23T02:25:03.055Z,1005.84
2022-10-23T02:26:02.994Z,1005.85
2022-10-23T02:27:02.482Z,1005.82
2022-10-23T02:28:02.015Z,1005.80
2022-10-23T02:29:02.587Z,1005.83
2022-10-23T02:30:02.166Z,1005.79
2022-10-23T02:31:02.289Z,1005.80
2022-10-23T02:32:02.317Z,1005.82
2022-10-23T02:33:02.542Z,1005.79
2022-10-23T02:34:02.517Z,1005.81
2022-10-23T02:35:02.331Z,1005.77
2022-10-23T02:36:02.850Z,1005.76
2022-10-23T02:37:03.025Z,1005.73
2022-10-23T02:38:02.858Z,1005.74
2022-10-23T02:39:03.278Z,1005.71
2022-10-23T02:40:03.149Z,1005.68
2022-10-23T02:41:03.264Z,1005.66
2022-10-23T02:42:02.901Z,1005.66
2022-10-23T02:43:02.547Z,1005.66
2022-10-23T02:44:02.326Z,1005.64
2022-10-23T02:45:02.380Z,1005.60
2022-10-23T02:46:02.444Z,1005.60
2022-10-23T02:47:02.999Z,1005.61
2022-10-23T02:48:03.363Z,1005.57
2022-10-23T02:49:03.235Z,1005.59
2022-10-23T02:50:03.327Z,1005.60
2022-10-23T02:51:03.337Z,1005.59
2022-10-23T02:52:02.865Z,1005.56
2022-10-23T02:53:02.693Z,1005.57
2022-10-23T02:54:02.348Z,1005.56
2022-10-23T02:55:02.926Z,1005.55
2022-10-23T02:56:02.619Z,1005.49
2022-10-23T02:57:03.179Z,1005.44
2022-10-23T02:58:02.954Z,1005.42
2022-10-23T02:59:02.861Z,1005.40
2022-10-23T03:00:02.684Z,1005.40
2022-10-23T03:01:02.742Z,1005.44
2022-10-23T03:02:02.419Z,1005.45
2022-10-23T03:03:01.878Z,1005.47
2022-10-23T03:04:01.723Z,1005.53
2022-10-23T03:05:02.221Z,1005.52
2022-10-23T03:06:02.008Z,1005.49
2022-10-23T03:07:02.510Z,1005.48
2022-10-23T03:08:02.046Z,1005.43
2022-10-23T03:09:01.961Z,1005.40
2022-10-23T03:10:01.954Z,1005.29
2022-10-23T03:11:02.049Z,1005.24
2022-10-23T03:12:02.454Z,1005.19
2022-10-23T03:13:02.834Z,1005.20
2022-10-23T03:14:02.803Z,1005.23
2022-10-23T03:15:02.648Z,1005.24
2022-10-23T03:16:02.449Z,1005.23
2022-10-23T03:17:01.635Z,1005.23
2022-10-23T03:18:01.755Z,1005.22
2022-10-23T03:19:02.104Z,1005.21
2022-10-23T03:20:01.746Z,1005.21
2022-10-23T03:21:02.249Z,1005.15
2022-10-23T03:22:01.719Z,1005.12
2022-10-23T03:23:01.891Z,1005.09
2022-10-23T03:24:02.333Z,1005.07
2022-10-23T03:25:01.998Z,1005.00
2022-10-23T03:26:01.728Z,1004.98
2022-10-23T03:27:02.257Z,1004.96
2022-10-23T03:28:02.367Z,1004.95
2022-10-23T03:29:02.254Z,1004.98
2022-10-23T03:30:02.849Z,1004.99
2022-10-23T03:31:02.477Z,1004.98
2022-10-23T03:32:02.067Z,1004.96
2022-10-23T03:33:02.483Z,1004.92
2022-10-23T03:34:04.129Z,1004.96
2022-10-23T03:35:01.947Z,1004.93
2022-10-23T03:36:02.430Z,1004.91
2022-10-23T03:37:02.650Z,1004.90
2022-10-23T03:38:02.454Z,1004.90
2022-10-23T03:39:02.767Z,1004.85
2022-10-23T03:40:02.446Z,1004.87
2022-10-23T03:41:02.294Z,1004.90
2022-10-23T03:42:02.076Z,1004.91
2022-10-23T03:43:01.958Z,1004.91
2022-10-23T03:44:02.230Z,1004.94
2022-10-23T03:45:01.902Z,1004.97
2022-10-23T03:46:01.838Z,1004.92
2022-10-23T03:47:02.326Z,1004.89
2022-10-23T03:48:02.521Z,1004.92
2022-10-23T03:49:02.365Z,1005.00
2022-10-23T03:50:02.813Z,1005.02
2022-10-23T03:51:02.778Z,1005.09
2022-10-23T03:52:01.659Z,1005.11
2022-10-23T03:53:01.887Z,1005.16
2022-10-23T03:54:01.691Z,1005.18
2022-10-23T03:55:01.489Z,1005.18
2022-10-23T03:56:01.974Z,1005.20
2022-10-23T03:57:01.754Z,1005.18
2022-10-23T03:58:01.655Z,1005.14
2022-10-23T03:59:01.985Z,1005.07
2022-10-23T04:00:01.706Z,1005.03
2022-10-23T04:01:01.994Z,1005.03
2022-10-23T04:02:03.788Z,1005.01
2022-10-23T04:03:03.523Z,1005.02
2022-10-23T04:04:03.454Z,1004.99
2022-10-23T04:05:03.278Z,1005.00
2022-10-23T04:06:03.688Z,1004.98
2022-10-23T04:07:03.016Z,1004.97
2022-10-23T04:08:02.577Z,1005.03
2022-10-23T04:09:03.082Z,1005.03
2022-10-23T04:10:02.639Z,1005.05
2022-10-23T04:11:03.116Z,1005.02
2022-10-23T04:12:03.682Z,1005.03
2022-10-23T04:13:03.337Z,1004.96
2022-10-23T04:14:03.239Z,1004.96
2022-10-23T04:15:03.077Z,1004.96
2022-10-23T04:16:03.413Z,1004.94
2022-10-23T04:17:03.064Z,1004.90
2022-10-23T04:18:03.227Z,1004.88
2022-10-23T04:19:03.268Z,1004.83
2022-10-23T04:20:03.196Z,1004.85
2022-10-23T04:21:03.713Z,1004.81
2022-10-23T04:22:03.136Z,1004.80
2022-10-23T04:23:03.746Z,1004.79
2022-10-23T04:24:03.695Z,1004.80
2022-10-23T04:25:03.605Z,1004.84
2022-10-23T04:26:03.576Z,1004.85
2022-10-23T04:27:03.575Z,1004.82
2022-10-23T04:28:03.441Z,1004.79
2022-10-23T04:29:03.829Z,1004.84
2022-10-23T04:30:03.589Z,1004.85
2022-10-23T04:31:03.421Z,1004.84
2022-10-23T04:32:02.843Z,1004.85
2022-10-23T04:33:03.002Z,1004.83
2022-10-23T04:34:03.329Z,1004.81
2022-10-23T04:35:02.797Z,1004.79
2022-10-23T04:36:03.326Z,1004.75
2022-10-23T04:37:03.263Z,1004.77
2022-10-23T04:38:03.520Z,1004.78
2022-10-23T04:39:03.217Z,1004.76
2022-10-23T04:40:03.026Z,1004.76
2022-10-23T04:41:03.547Z,1004.77
2022-10-23T04:42:03.089Z,1004.84
2022-10-23T04:43:02.787Z,1004.82
2022-10-23T04:44:02.680Z,1004.84
2022-10-23T04:45:02.880Z,1004.85
2022-10-23T04:46:02.671Z,1004.83
2022-10-23T04:47:03.232Z,1004.83
2022-10-23T04:48:03.209Z,1004.77
2022-10-23T04:49:03.139Z,1004.76
2022-10-23T04:50:03.003Z,1004.70
2022-10-23T04:51:03.082Z,1004.68
2022-10-23T04:52:03.639Z,1004.62
2022-10-23T04:53:03.680Z,1004.56
2022-10-23T04:54:03.320Z,1004.60
2022-10-23T04:55:03.624Z,1004.52
2022-10-23T04:56:03.490Z,1004.52
2022-10-23T04:57:03.353Z,1004.51
2022-10-23T04:58:03.386Z,1004.48
2022-10-23T04:59:02.983Z,1004.44
2022-10-23T05:00:02.868Z,1004.44
2022-10-23T05:01:03.122Z,1004.44
2022-10-23T05:02:02.714Z,1004.42
2022-10-23T05:03:02.525Z,1004.43
2022-10-23T05:04:02.914Z,1004.40
2022-10-23T05:05:02.594Z,1004.44
2022-10-23T05:06:02.488Z,1004.43
2022-10-23T05:07:02.403Z,1004.41
2022-10-23T05:08:02.899Z,1004.47
2022-10-23T05:09:02.706Z,1004.46
2022-10-23T05:10:02.684Z,1004.45
2022-10-23T05:11:02.345Z,1004.43
2022-10-23T05:12:02.786Z,1004.48
2022-10-23T05:13:02.637Z,1004.49
2022-10-23T05:14:03.025Z,1004.46
2022-10-23T05:15:02.719Z,1004.48
2022-10-23T05:16:02.799Z,1004.48
2022-10-23T05:17:03.365Z,1004.44
2022-10-23T05:18:03.582Z,1004.43
2022-10-23T05:19:03.323Z,1004.40
2022-10-23T05:20:03.557Z,1004.43
2022-10-23T05:21:03.405Z,1004.44
2022-10-23T05:22:02.877Z,1004.40
2022-10-23T05:23:02.497Z,1004.36
2022-10-23T05:24:02.656Z,1004.34
2022-10-23T05:25:02.866Z,1004.33
2022-10-23T05:26:02.755Z,1004.34
2022-10-23T05:27:03.302Z,1004.35
2022-10-23T05:28:03.318Z,1004.37
2022-10-23T05:29:03.225Z,1004.30
2022-10-23T05:30:03.101Z,1004.25
2022-10-23T05:31:03.474Z,1004.23
2022-10-23T05:32:02.839Z,1004.22
2022-10-23T05:33:02.686Z,1004.26
2022-10-23T05:34:02.407Z,1004.24
2022-10-23T05:35:02.579Z,1004.26
2022-10-23T05:36:02.363Z,1004.25
2022-10-23T05:37:03.505Z,1004.24
2022-10-23T05:38:03.421Z,1004.25
2022-10-23T05:39:03.596Z,1004.21
2022-10-23T05:40:03.498Z,1004.24
2022-10-23T05:41:03.521Z,1004.20
2022-10-23T05:42:03.157Z,1004.23
2022-10-23T05:43:02.785Z,1004.22
2022-10-23T05:44:03.015Z,1004.21
2022-10-23T05:45:03.098Z,1004.24
2022-10-23T05:46:02.911Z,1004.23
2022-10-23T05:47:03.467Z,1004.19
2022-10-23T05:48:10.941Z,1004.17
2022-10-23T05:49:03.539Z,1004.16
2022-10-23T05:50:03.018Z,1004.15
2022-10-23T05:51:03.466Z,1004.11
2022-10-23T05:52:03.690Z,1004.11
2022-10-23T05:53:03.096Z,1004.11
2022-10-23T05:54:03.077Z,1004.08
2022-10-23T05:55:03.733Z,1004.06
2022-10-23T05:56:03.219Z,1004.01
2022-10-23T05:57:03.339Z,1004.00
2022-10-23T05:58:03.045Z,1004.03
2022-10-23T05:59:02.887Z,1003.99
2022-10-23T06:00:03.224Z,1003.95
2022-10-23T06:01:02.734Z,1003.97
2022-10-23T06:02:02.326Z,1003.96
2022-10-23T06:03:02.775Z,1003.93
2022-10-23T06:04:02.470Z,1003.90
2022-10-23T06:05:02.145Z,1003.94
2022-10-23T06:06:02.205Z,1003.94
2022-10-23T06:07:02.840Z,1003.91
2022-10-23T06:08:02.858Z,1003.92
2022-10-23T06:09:03.173Z,1003.91
2022-10-23T06:10:03.333Z,1003.88
2022-10-23T06:11:03.245Z,1003.89
2022-10-23T06:12:02.416Z,1003.88
2022-10-23T06:13:02.674Z,1003.85
2022-10-23T06:14:02.196Z,1003.90
2022-10-23T06:15:02.201Z,1003.90
2022-10-23T06:16:02.431Z,1003.92
2022-10-23T06:17:02.565Z,1003.88
2022-10-23T06:18:02.867Z,1003.85
2022-10-23T06:19:03.399Z,1003.88
2022-10-23T06:20:02.754Z,1003.89
2022-10-23T06:21:02.770Z,1003.87
2022-10-23T06:22:02.646Z,1003.90
2022-10-23T06:23:03.025Z,1003.85
2022-10-23T06:24:02.864Z,1003.86
2022-10-23T06:25:02.892Z,1003.85
2022-10-23T06:26:03.151Z,1003.83
2022-10-23T06:27:02.954Z,1003.86
2022-10-23T06:28:03.361Z,1003.84
2022-10-23T06:29:03.380Z,1003.85
2022-10-23T06:30:03.292Z,1003.80
2022-10-23T06:31:03.447Z,1003.84
2022-10-23T06:32:02.675Z,1003.78
2022-10-23T06:33:04.607Z,1003.84
2022-10-23T06:34:02.761Z,1003.77
2022-10-23T06:35:02.759Z,1003.83
2022-10-23T06:36:02.538Z,1003.82
2022-10-23T06:37:02.743Z,1003.81
2022-10-23T06:38:02.914Z,1003.80
2022-10-23T06:39:02.719Z,1003.80
2022-10-23T06:40:03.045Z,1003.81
2022-10-23T06:41:03.036Z,1003.85
2022-10-23T06:42:03.398Z,1003.85
2022-10-23T06:43:03.171Z,1003.85
2022-10-23T06:44:03.085Z,1003.89
2022-10-23T06:45:06.367Z,1003.88
2022-10-23T06:46:03.452Z,1003.87
2022-10-23T06:47:03.649Z,1003.84
2022-10-23T06:48:03.283Z,1003.82
2022-10-23T06:49:03.211Z,1003.83
2022-10-23T06:50:03.386Z,1003.83
2022-10-23T06:51:03.269Z,1003.78
2022-10-23T06:52:02.738Z,1003.76
2022-10-23T06:53:02.330Z,1003.71
2022-10-23T06:54:02.651Z,1003.70
2022-10-23T06:55:02.300Z,1003.72
2022-10-23T06:56:02.457Z,1003.69
2022-10-23T06:57:02.438Z,1003.72
2022-10-23T06:58:02.333Z,1003.74
2022-10-23T06:59:02.289Z,1003.72
2022-10-23T07:00:02.315Z,1003.70
2022-10-23T07:01:02.629Z,1003.70
2022-10-23T07:02:03.049Z,1003.70
2022-10-23T07:03:03.050Z,1003.71
2022-10-23T07:04:03.085Z,1003.70
2022-10-23T07:05:02.927Z,1003.67
2022-10-23T07:06:02.899Z,1003.69
2022-10-23T07:07:02.481Z,1003.67
2022-10-23T07:08:02.605Z,1003.66
2022-10-23T07:09:02.633Z,1003.68
2022-10-23T07:10:02.705Z,1003.63
2022-10-23T07:11:02.606Z,1003.65
2022-10-23T07:12:02.987Z,1003.65
2022-10-23T07:13:02.820Z,1003.64
2022-10-23T07:14:02.834Z,1003.63
2022-10-23T07:15:02.794Z,1003.66
2022-10-23T07:16:02.744Z,1003.69
2022-10-23T07:17:02.472Z,1003.68
2022-10-23T07:18:02.325Z,1003.69
2022-10-23T07:19:02.460Z,1003.68
2022-10-23T07:20:02.252Z,1003.72
2022-10-23T07:21:02.158Z,1003.67
2022-10-23T07:22:02.519Z,1003.71
2022-10-23T07:23:02.368Z,1003.63
2022-10-23T07:24:02.570Z,1003.67
2022-10-23T07:25:02.354Z,1003.68
2022-10-23T07:26:02.771Z,1003.63
2022-10-23T07:27:03.123Z,1003.70
2022-10-23T07:28:03.031Z,1003.66
2022-10-23T07:29:03.028Z,1003.70
2022-10-23T07:30:03.146Z,1003.66
2022-10-23T07:31:02.752Z,1003.65
2022-10-23T07:32:02.494Z,1003.65
2022-10-23T07:33:02.489Z,1003.61
2022-10-23T07:34:02.418Z,1003.61
2022-10-23T07:35:02.457Z,1003.60
2022-10-23T07:36:02.529Z,1003.61
2022-10-23T07:37:02.465Z,1003.57
2022-10-23T07:38:02.524Z,1003.57
2022-10-23T07:39:02.306Z,1003.54
2022-10-23T07:40:02.645Z,1003.60
2022-10-23T07:41:02.541Z,1003.55
2022-10-23T07:42:02.586Z,1003.60
2022-10-23T07:43:02.439Z,1003.60
2022-10-23T07:44:02.796Z,1003.64
2022-10-23T07:45:02.491Z,1003.60
2022-10-23T07:46:02.582Z,1003.64
2022-10-23T07:47:03.148Z,1003.62
2022-10-23T07:48:03.210Z,1003.66
2022-10-23T07:49:02.830Z,1003.66
2022-10-23T07:50:02.901Z,1003.64
2022-10-23T07:51:03.187Z,1003.64
2022-10-23T07:53:03.310Z,1003.64
2022-10-23T07:54:02.830Z,1003.64
2022-10-23T07:55:03.347Z,1003.65
2022-10-23T07:56:03.432Z,1003.61
2022-10-23T07:57:02.897Z,1003.61
2022-10-23T07:58:02.911Z,1003.64
2022-10-23T07:59:02.937Z,1003.61
2022-10-23T08:00:02.828Z,1003.62
2022-10-23T08:01:03.003Z,1003.59
2022-10-23T08:02:03.046Z,1003.57
2022-10-23T08:03:02.714Z,1003.59
2022-10-23T08:04:02.624Z,1003.57
2022-10-23T08:05:02.999Z,1003.57
2022-10-23T08:06:02.529Z,1003.56
2022-10-23T08:07:02.266Z,1003.52
2022-10-23T08:08:02.381Z,1003.54
2022-10-23T08:09:05.420Z,1003.55
2022-10-23T08:10:02.411Z,1003.55
2022-10-23T08:11:02.210Z,1003.55
2022-10-23T08:12:02.977Z,1003.50
2022-10-23T08:13:02.927Z,1003.49
2022-10-23T08:14:02.720Z,1003.49
2022-10-23T08:15:02.669Z,1003.48
2022-10-23T08:16:02.960Z,1003.42
2022-10-23T08:18:02.508Z,1003.43
2022-10-23T08:19:02.160Z,1003.44
2022-10-23T08:20:02.074Z,1003.37
2022-10-23T08:21:02.198Z,1003.39
2022-10-23T08:22:02.278Z,1003.38
2022-10-23T08:23:02.065Z,1003.38
2022-10-23T08:24:01.831Z,1003.42
2022-10-23T08:25:01.914Z,1003.36
2022-10-23T08:26:02.064Z,1003.41
2022-10-23T08:27:02.202Z,1003.39
2022-10-23T08:28:05.547Z,1003.42
2022-10-23T08:29:02.396Z,1003.38
2022-10-23T08:30:02.815Z,1003.42
2022-10-23T08:31:02.851Z,1003.35
2022-10-23T08:32:02.881Z,1003.35
2022-10-23T08:33:02.663Z,1003.37
2022-10-23T08:34:02.292Z,1003.34
2022-10-23T08:35:02.819Z,1003.34
2022-10-23T08:36:02.270Z,1003.29
2022-10-23T08:37:02.997Z,1003.36
2022-10-23T08:38:02.464Z,1003.31
2022-10-23T08:39:02.905Z,1003.34
2022-10-23T08:40:02.965Z,1003.32
2022-10-23T08:41:02.809Z,1003.33
2022-10-23T08:42:03.217Z,1003.29
2022-10-23T08:43:02.818Z,1003.32
2022-10-23T08:44:03.015Z,1003.33
2022-10-23T08:45:02.967Z,1003.29
2022-10-23T08:46:04.230Z,1003.29
2022-10-23T08:47:02.623Z,1003.33
2022-10-23T08:48:02.346Z,1003.29
2022-10-23T08:49:02.354Z,1003.27
2022-10-23T08:50:02.419Z,1003.25
2022-10-23T08:51:02.494Z,1003.26
2022-10-23T08:52:03.204Z,1003.21
2022-10-23T08:53:03.154Z,1003.17
2022-10-23T08:54:03.005Z,1003.18
2022-10-23T08:55:02.949Z,1003.13
2022-10-23T08:56:02.999Z,1003.12
2022-10-23T08:57:01.744Z,1003.12
2022-10-23T08:58:02.360Z,1003.09
2022-10-23T08:59:02.014Z,1003.09
2022-10-23T09:00:01.980Z,1003.05
2022-10-23T09:01:02.265Z,1003.00
2022-10-23T09:02:02.797Z,1003.01
2022-10-23T09:03:02.559Z,1002.99
2022-10-23T09:04:02.566Z,1002.96
2022-10-23T09:05:02.512Z,1002.97
2022-10-23T09:06:02.330Z,1002.96
2022-10-23T09:07:02.404Z,1002.93
2022-10-23T09:08:02.422Z,1002.91
2022-10-23T09:09:02.996Z,1002.93
2022-10-23T09:10:02.812Z,1002.92
2022-10-23T09:11:02.807Z,1002.93
2022-10-23T09:12:02.535Z,1002.90
2022-10-23T09:13:02.981Z,1002.88
2022-10-23T09:14:02.994Z,1002.86
2022-10-23T09:15:02.953Z,1002.83
2022-10-23T09:16:02.835Z,1002.82
2022-10-23T09:17:01.940Z,1002.82
2022-10-23T09:18:02.390Z,1002.79
2022-10-23T09:19:02.382Z,1002.79
2022-10-23T09:20:01.821Z,1002.80
2022-10-23T09:21:02.009Z,1002.81
2022-10-23T09:22:02.144Z,1002.80
2022-10-23T09:23:02.067Z,1002.77
2022-10-23T09:24:02.160Z,1002.75
2022-10-23T09:25:02.303Z,1002.77
2022-10-23T09:26:02.085Z,1002.76
2022-10-23T09:27:02.806Z,1002.75
2022-10-23T09:28:05.472Z,1002.76
2022-10-23T09:29:03.114Z,1002.78
2022-10-23T09:30:03.285Z,1002.77
2022-10-23T09:31:03.199Z,1002.77
2022-10-23T09:32:02.096Z,1002.72
2022-10-23T09:33:02.037Z,1002.69
2022-10-23T09:34:02.057Z,1002.68
2022-10-23T09:35:02.088Z,1002.66
2022-10-23T09:36:02.649Z,1002.66
2022-10-23T09:37:02.412Z,1002.67
2022-10-23T09:38:02.351Z,1002.58
2022-10-23T09:39:02.469Z,1002.67
2022-10-23T09:40:02.775Z,1002.58
2022-10-23T09:41:02.811Z,1002.58
2022-10-23T09:42:02.816Z,1002.55
2022-10-23T09:43:02.930Z,1002.52
2022-10-23T09:44:02.975Z,1002.51
2022-10-23T09:45:02.909Z,1002.47
2022-10-23T09:46:02.834Z,1002.45
2022-10-23T09:47:02.571Z,1002.44
2022-10-23T09:48:02.970Z,1002.47
2022-10-23T09:49:05.043Z,1002.43
2022-10-23T09:50:02.898Z,1002.48
2022-10-23T09:51:02.933Z,1002.49
2022-10-23T09:52:02.862Z,1002.49
2022-10-23T09:53:02.777Z,1002.48
2022-10-23T09:54:02.736Z,1002.52
2022-10-23T09:55:02.727Z,1002.50
2022-10-23T09:56:02.739Z,1002.54
2022-10-23T09:57:02.378Z,1002.49
2022-10-23T09:58:02.564Z,1002.48
2022-10-23T09:59:02.499Z,1002.49
2022-10-23T10:00:02.554Z,1002.42
2022-10-23T10:01:02.894Z,1002.43
2022-10-23T10:02:03.013Z,1002.48
2022-10-23T10:03:02.809Z,1002.48
2022-10-23T10:04:02.719Z,1002.52
2022-10-23T10:05:02.756Z,1002.54
2022-10-23T10:06:02.790Z,1002.61
2022-10-23T10:07:02.949Z,1002.64
2022-10-23T10:08:02.981Z,1002.61
2022-10-23T10:09:03.249Z,1002.66
2022-10-23T10:10:03.257Z,1002.64
2022-10-23T10:11:03.148Z,1002.70
2022-10-23T10:12:03.425Z,1002.67
2022-10-23T10:13:03.363Z,1002.64
2022-10-23T10:14:03.468Z,1002.57
2022-10-23T10:15:03.244Z,1002.61
2022-10-23T10:16:03.270Z,1002.57
2022-10-23T10:17:03.157Z,1002.59
2022-10-23T10:18:03.167Z,1002.60
2022-10-23T10:19:03.030Z,1002.60
2022-10-23T10:20:05.449Z,1002.67
2022-10-23T10:21:02.981Z,1002.71
2022-10-23T10:22:03.588Z,1002.71
2022-10-23T10:23:03.620Z,1002.74
2022-10-23T10:24:03.534Z,1002.70
2022-10-23T10:25:03.521Z,1002.65
2022-10-23T10:26:03.542Z,1002.66
2022-10-23T10:27:03.262Z,1002.63
2022-10-23T10:28:02.774Z,1002.64
2022-10-23T10:29:02.839Z,1002.63
2022-10-23T10:30:03.275Z,1002.63
2022-10-23T10:31:03.269Z,1002.61
2022-10-23T10:32:03.650Z,1002.61
2022-10-23T10:33:03.785Z,1002.57
2022-10-23T10:34:03.610Z,1002.58
2022-10-23T10:35:03.544Z,1002.53
2022-10-23T10:36:03.618Z,1002.55
2022-10-23T10:37:03.337Z,1002.48
2022-10-23T10:38:02.990Z,1002.40
2022-10-23T10:39:02.970Z,1002.33
2022-10-23T10:40:02.998Z,1002.26
2022-10-23T10:41:03.542Z,1002.21
2022-10-23T10:42:03.768Z,1002.10
2022-10-23T10:43:03.570Z,1001.99
2022-10-23T10:44:03.604Z,1001.91
2022-10-23T10:45:03.891Z,1001.81
2022-10-23T10:46:03.964Z,1001.75
2022-10-23T10:47:03.228Z,1001.66
2022-10-23T10:48:03.480Z,1001.65
2022-10-23T10:49:03.080Z,1001.65
2022-10-23T10:50:03.314Z,1001.66
2022-10-23T10:51:02.995Z,1001.69
2022-10-23T10:52:03.558Z,1001.80
2022-10-23T10:53:03.566Z,1001.84
2022-10-23T10:54:03.751Z,1001.89
2022-10-23T10:55:03.322Z,1001.82
2022-10-23T10:56:03.325Z,1001.84
2022-10-23T10:57:03.258Z,1001.86
2022-10-23T10:58:03.095Z,1001.85
2022-10-23T10:59:02.701Z,1001.77
2022-10-23T11:00:02.653Z,1001.71
2022-10-23T11:01:02.998Z,1001.67
2022-10-23T11:02:02.598Z,1001.61
2022-10-23T11:03:02.433Z,1001.57
2022-10-23T11:04:02.425Z,1001.51
2022-10-23T11:05:02.614Z,1001.48
2022-10-23T11:06:02.376Z,1001.42
2022-10-23T11:07:02.852Z,1001.38
2022-10-23T11:08:02.389Z,1001.34
2022-10-23T11:09:19.375Z,1001.40
2022-10-23T11:10:02.610Z,1001.35
2022-10-23T11:11:02.664Z,1001.52
2022-10-23T11:12:02.915Z,1001.69
2022-10-23T11:13:02.662Z,1001.85
2022-10-23T11:14:02.539Z,1001.95
2022-10-23T11:15:02.945Z,1002.00
2022-10-23T11:16:02.699Z,1002.03
2022-10-23T11:17:02.421Z,1001.96
2022-10-23T11:18:01.947Z,1001.95
2022-10-23T11:19:01.982Z,1001.90
2022-10-23T11:20:02.594Z,1001.81
2022-10-23T11:21:02.203Z,1001.70
2022-10-23T11:22:03.112Z,1001.64
2022-10-23T11:23:02.831Z,1001.68
2022-10-23T11:24:02.947Z,1001.62
2022-10-23T11:25:02.931Z,1001.59
2022-10-23T11:26:03.086Z,1001.58
2022-10-23T11:27:02.003Z,1001.67
2022-10-23T11:28:04.444Z,1001.72
2022-10-23T11:29:02.019Z,1001.74
2022-10-23T11:30:02.059Z,1001.74
2022-10-23T11:31:02.105Z,1001.72
2022-10-23T11:32:02.085Z,1001.69
2022-10-23T11:33:02.670Z,1001.64
2022-10-23T11:34:02.232Z,1001.64
2022-10-23T11:35:02.140Z,1001.64
2022-10-23T11:36:02.184Z,1001.60
2022-10-23T11:37:02.181Z,1001.58
2022-10-23T11:38:02.834Z,1001.59
2022-10-23T11:39:02.459Z,1001.54
2022-10-23T11:40:02.319Z,1001.50
2022-10-23T11:41:02.240Z,1001.48
2022-10-23T11:42:02.377Z,1001.46
2022-10-23T11:43:02.961Z,1001.50
2022-10-23T11:44:02.522Z,1001.47
2022-10-23T11:45:02.968Z,1001.44
2022-10-23T11:46:02.505Z,1001.42
2022-10-23T11:47:02.482Z,1001.37
2022-10-23T11:48:03.139Z,1001.31
2022-10-23T11:49:02.991Z,1001.30
2022-10-23T11:50:03.038Z,1001.30
2022-10-23T11:51:05.086Z,1001.28
2022-10-23T11:52:02.926Z,1001.24
2022-10-23T11:53:13.399Z,1001.25
2022-10-23T11:54:02.519Z,1001.24
2022-10-23T11:55:02.182Z,1001.20
2022-10-23T11:56:02.466Z,1001.18
2022-10-23T11:57:02.239Z,1001.21
2022-10-23T11:58:02.464Z,1001.17
2022-10-23T11:59:02.562Z,1001.20
2022-10-23T12:00:02.598Z,1001.17
2022-10-23T12:01:02.811Z,1001.24
2022-10-23T12:02:02.770Z,1001.30
2022-10-23T12:03:03.028Z,1001.31
2022-10-23T12:04:03.062Z,1001.22
2022-10-23T12:05:03.513Z,1001.28
2022-10-23T12:06:03.298Z,1001.19
2022-10-23T12:07:03.256Z,1001.19
2022-10-23T12:08:02.955Z,1001.12
2022-10-23T12:09:03.043Z,1001.16